createdAt,value
2022-12-18T00:02:02.800Z,88.45
2022-12-18T00:04:30.260Z,88.07
2022-12-18T00:06:57.772Z,95.20
2022-12-18T00:09:31.335Z,93.55
2022-12-18T00:14:46.177Z,106.57
2022-12-18T00:17:14.577Z,103.65
2022-12-18T00:19:41.820Z,116.88
2022-12-18T00:22:09.792Z,111.55
2022-12-18T00:24:37.419Z,112.00
2022-12-18T00:27:04.743Z,109.70
2022-12-18T00:29:32.119Z,107.90
2022-12-18T00:32:00.644Z,102.90
2022-12-18T00:34:28.120Z,110.95
2022-12-18T00:36:58.931Z,121.78
2022-12-18T00:39:26.219Z,116.78
2022-12-18T00:42:11.848Z,108.18
2022-12-18T00:44:40.112Z,107.25
2022-12-18T00:47:09.057Z,104.50
2022-12-18T00:49:36.737Z,103.53
2022-12-18T00:52:03.986Z,97.18
2022-12-18T00:54:31.284Z,100.35
2022-12-18T00:56:58.646Z,94.57
2022-12-18T00:59:26.351Z,96.28
2022-12-18T01:01:54.049Z,92.72
2022-12-18T01:04:21.481Z,87.95
2022-12-18T01:06:48.787Z,88.10
2022-12-18T01:09:17.194Z,81.32
2022-12-18T01:11:44.720Z,75.38
2022-12-18T01:14:12.300Z,81.15
2022-12-18T01:16:39.866Z,79.32
2022-12-18T01:19:07.451Z,76.68
2022-12-18T01:21:35.139Z,79.72
2022-12-18T01:24:05.456Z,82.20
2022-12-18T01:26:33.012Z,77.57
2022-12-18T01:29:00.459Z,80.80
2022-12-18T01:31:31.607Z,83.82
2022-12-18T01:34:01.531Z,86.63
2022-12-18T01:36:32.545Z,86.05
2022-12-18T01:39:06.896Z,85.30
2022-12-18T01:41:55.196Z,90.55
2022-12-18T01:45:04.300Z,83.13
2022-12-18T01:47:40.924Z,88.88
2022-12-18T01:50:13.318Z,87.63
2022-12-18T01:52:44.290Z,86.88
2022-12-18T01:55:14.169Z,88.93
2022-12-18T01:57:42.670Z,90.85
2022-12-18T02:00:16.141Z,91.35
2022-12-18T02:02:45.286Z,92.50
2022-12-18T02:05:19.533Z,89.57
2022-12-18T02:08:16.556Z,95.18
2022-12-18T02:10:54.194Z,95.10
2022-12-18T02:14:00.183Z,94.38
2022-12-18T02:16:42.932Z,90.72
2022-12-18T02:19:38.042Z,88.43
2022-12-18T02:22:27.696Z,86.93
2022-12-18T02:25:31.957Z,82.93
2022-12-18T02:28:03.138Z,82.93
2022-12-18T02:30:35.400Z,85.47
2022-12-18T02:33:07.960Z,87.28
2022-12-18T02:35:37.674Z,85.10
2022-12-18T02:38:05.957Z,82.30
2022-12-18T02:40:39.035Z,74.43
2022-12-18T02:43:15.687Z,81.70
2022-12-18T02:45:53.683Z,76.43
2022-12-18T02:48:26.233Z,79.43
2022-12-18T02:51:14.197Z,86.60
2022-12-18T02:53:50.971Z,86.15
2022-12-18T02:56:39.927Z,68.72
2022-12-18T02:59:14.288Z,69.28
2022-12-18T03:01:58.484Z,62.88
2022-12-18T03:04:32.802Z,62.65
2022-12-18T03:07:09.616Z,54.05
2022-12-18T03:09:42.651Z,53.95
2022-12-18T03:12:24.223Z,56.30
2022-12-18T03:15:17.285Z,55.80
2022-12-18T03:17:57.090Z,50.33
2022-12-18T03:20:29.919Z,46.58
2022-12-18T03:23:04.055Z,48.22
2022-12-18T03:25:34.548Z,47.47
2022-12-18T03:28:05.738Z,49.75
2022-12-18T03:30:38.898Z,48.08
2022-12-18T03:33:19.148Z,46.72
2022-12-18T03:35:48.881Z,53.40
2022-12-18T03:38:19.330Z,47.08
2022-12-18T03:40:54.861Z,48.17
2022-12-18T03:43:31.810Z,48.03
2022-12-18T03:46:09.216Z,45.40
2022-12-18T03:48:45.940Z,42.45
2022-12-18T03:51:35.606Z,50.40
2022-12-18T03:54:06.835Z,44.65
2022-12-18T03:56:49.844Z,46.03
2022-12-18T03:59:18.470Z,50.88
2022-12-18T04:01:53.742Z,48.55
2022-12-18T04:04:23.491Z,54.85
2022-12-18T04:06:52.306Z,53.80
2022-12-18T04:09:22.221Z,52.13
2022-12-18T04:11:50.035Z,43.80
2022-12-18T04:14:18.548Z,46.00
2022-12-18T04:16:50.014Z,47.95
2022-12-18T04:19:20.173Z,45.55
2022-12-18T04:21:50.883Z,57.25
2022-12-18T04:24:19.027Z,56.38
2022-12-18T04:26:55.720Z,51.33
2022-12-18T04:29:26.467Z,54.95
2022-12-18T04:31:53.925Z,48.60
2022-12-18T04:34:22.451Z,47.67
2022-12-18T04:36:52.938Z,49.25
2022-12-18T04:39:21.666Z,54.35
2022-12-18T04:41:51.104Z,51.55
2022-12-18T04:44:18.992Z,50.22
2022-12-18T04:46:46.689Z,47.35
2022-12-18T04:49:14.291Z,43.72
2022-12-18T04:51:41.560Z,44.97
2022-12-18T04:54:09.221Z,47.70
2022-12-18T04:56:36.614Z,43.28
2022-12-18T04:59:03.999Z,39.85
2022-12-18T05:01:34.792Z,44.22
2022-12-18T05:04:04.278Z,39.15
2022-12-18T05:06:31.607Z,40.92
2022-12-18T05:08:59.462Z,42.80
2022-12-18T05:11:29.223Z,47.60
2022-12-18T05:13:59.381Z,41.10
2022-12-18T05:16:26.882Z,35.20
2022-12-18T05:18:55.705Z,36.53
2022-12-18T05:21:23.049Z,36.35
2022-12-18T05:23:51.860Z,37.60
2022-12-18T05:26:19.935Z,35.78
2022-12-18T05:28:47.565Z,36.92
2022-12-18T05:31:15.860Z,35.03
2022-12-18T05:33:43.446Z,35.80
2022-12-18T05:36:12.928Z,34.50
2022-12-18T05:38:40.800Z,34.17
2022-12-18T05:41:09.085Z,34.47
2022-12-18T05:43:38.147Z,29.58
2022-12-18T05:46:12.669Z,33.97
2022-12-18T05:48:40.554Z,31.52
2022-12-18T05:51:11.997Z,34.47
2022-12-18T05:53:40.306Z,36.13
2022-12-18T05:56:11.024Z,31.27
2022-12-18T05:58:38.635Z,28.98
2022-12-18T06:01:28.546Z,31.55
2022-12-18T06:03:57.144Z,32.30
2022-12-18T06:06:29.367Z,32.80
2022-12-18T06:08:57.989Z,33.40
2022-12-18T06:11:27.621Z,33.47
2022-12-18T06:13:58.871Z,33.22
2022-12-18T06:16:28.327Z,35.55
2022-12-18T06:19:00.190Z,35.92
2022-12-18T06:21:29.328Z,37.45
2022-12-18T06:23:57.141Z,38.75
2022-12-18T06:26:28.312Z,35.95
2022-12-18T06:28:56.575Z,32.92
2022-12-18T06:31:24.048Z,33.13
2022-12-18T06:33:51.635Z,33.13
2022-12-18T06:36:19.295Z,33.25
2022-12-18T06:38:47.553Z,36.33
2022-12-18T06:41:21.626Z,31.00
2022-12-18T06:43:48.852Z,30.60
2022-12-18T06:46:16.658Z,32.58
2022-12-18T06:48:44.115Z,29.55
2022-12-18T06:51:12.128Z,29.10
2022-12-18T06:53:41.549Z,33.83
2022-12-18T06:56:10.906Z,32.35
2022-12-18T06:58:40.178Z,30.38
2022-12-18T07:01:10.250Z,31.88
2022-12-18T07:03:39.270Z,34.03
2022-12-18T07:06:07.346Z,31.95
2022-12-18T07:08:35.108Z,32.58
2022-12-18T07:11:05.290Z,28.80
2022-12-18T07:13:33.094Z,29.90
2022-12-18T07:16:18.411Z,30.48
2022-12-18T07:18:49.920Z,27.80
2022-12-18T07:21:20.122Z,30.58
2022-12-18T07:23:49.595Z,26.70
2022-12-18T07:26:19.015Z,24.67
2022-12-18T07:28:47.111Z,24.02
2022-12-18T07:31:17.432Z,23.15
2022-12-18T07:33:47.155Z,26.20
2022-12-18T07:36:15.002Z,25.02
2022-12-18T07:38:42.604Z,27.20
2022-12-18T07:41:13.066Z,26.35
2022-12-18T07:43:42.023Z,25.75
2022-12-18T07:46:15.240Z,31.08
2022-12-18T07:48:43.782Z,26.20
2022-12-18T07:51:13.844Z,26.08
2022-12-18T07:53:42.236Z,26.63
2022-12-18T07:56:30.089Z,23.05
2022-12-18T07:58:59.473Z,26.67
2022-12-18T08:01:27.095Z,23.38
2022-12-18T08:03:54.639Z,24.10
2022-12-18T08:06:24.194Z,21.42
2022-12-18T08:08:57.093Z,25.52
2022-12-18T08:11:26.026Z,26.48
2022-12-18T08:13:55.004Z,23.77
2022-12-18T08:16:23.611Z,28.60
2022-12-18T08:18:53.022Z,29.63
2022-12-18T08:21:24.291Z,26.35
2022-12-18T08:23:53.079Z,30.50
2022-12-18T08:26:21.268Z,31.55
2022-12-18T08:28:52.825Z,28.02
2022-12-18T08:31:22.037Z,26.67
2022-12-18T08:33:53.813Z,29.55
2022-12-18T08:36:24.240Z,29.05
2022-12-18T08:38:52.270Z,31.73
2022-12-18T08:41:22.361Z,34.03
2022-12-18T08:44:09.069Z,32.97
2022-12-18T08:46:39.569Z,35.40
2022-12-18T08:49:08.722Z,35.03
2022-12-18T08:51:37.210Z,33.85
2022-12-18T08:54:06.509Z,36.72
2022-12-18T08:56:34.730Z,37.40
2022-12-18T08:59:02.862Z,39.58
2022-12-18T09:01:30.401Z,43.67
2022-12-18T09:03:58.629Z,40.45
2022-12-18T09:06:26.742Z,39.20
2022-12-18T09:08:54.520Z,35.75
2022-12-18T09:11:28.043Z,32.42
2022-12-18T09:13:56.786Z,77.03
2022-12-18T09:16:31.636Z,48.00
2022-12-18T09:19:03.349Z,37.28
2022-12-18T09:21:35.120Z,40.75
2022-12-18T09:24:05.007Z,34.30
2022-12-18T09:26:35.289Z,32.80
2022-12-18T09:29:03.786Z,37.20
2022-12-18T09:31:31.142Z,34.28
2022-12-18T09:33:58.553Z,38.22
2022-12-18T09:36:26.482Z,41.17
2022-12-18T09:38:54.754Z,68.13
2022-12-18T09:41:58.687Z,35.15
2022-12-18T09:44:45.032Z,42.35
2022-12-18T09:47:15.809Z,38.38
2022-12-18T09:49:49.047Z,42.08
2022-12-18T09:52:23.237Z,46.28
2022-12-18T09:55:00.926Z,40.10
2022-12-18T09:57:28.435Z,42.83
2022-12-18T10:00:08.517Z,48.97
2022-12-18T10:02:38.906Z,46.78
2022-12-18T10:05:15.521Z,47.28
2022-12-18T10:07:48.526Z,44.80
2022-12-18T10:10:32.124Z,45.08
2022-12-18T10:13:27.917Z,39.22
2022-12-18T10:16:05.592Z,37.05
2022-12-18T10:18:48.886Z,36.70
2022-12-18T10:21:41.784Z,30.48
2022-12-18T10:24:43.348Z,29.30
2022-12-18T10:27:22.758Z,31.30
2022-12-18T10:29:50.641Z,26.42
2022-12-18T10:32:24.121Z,29.90
2022-12-18T10:37:33.974Z,22.38
2022-12-18T10:40:22.264Z,27.83
2022-12-18T10:43:17.476Z,23.40
2022-12-18T10:46:03.337Z,23.63
2022-12-18T10:48:32.335Z,23.50
2022-12-18T10:51:10.861Z,23.30
2022-12-18T10:53:42.893Z,21.27
2022-12-18T10:56:10.931Z,18.90
2022-12-18T10:58:42.039Z,16.60
2022-12-18T11:01:18.677Z,13.63
2022-12-18T11:04:01.788Z,14.88
2022-12-18T11:06:30.031Z,15.00
2022-12-18T11:09:21.253Z,11.45
2022-12-18T11:11:58.467Z,12.25
2022-12-18T11:14:29.475Z,17.92
2022-12-18T11:17:24.918Z,14.40
2022-12-18T11:19:57.093Z,15.38
2022-12-18T11:22:34.448Z,12.38
2022-12-18T11:25:32.436Z,13.43
2022-12-18T11:28:02.540Z,15.30
2022-12-18T11:30:38.393Z,9.27
2022-12-18T11:33:18.568Z,9.60
2022-12-18T11:35:58.378Z,9.20
2022-12-18T11:38:31.548Z,9.48
2022-12-18T11:41:52.090Z,8.40
2022-12-18T11:44:38.531Z,8.57
2022-12-18T11:47:21.154Z,10.23
2022-12-18T11:49:51.159Z,8.35
2022-12-18T11:52:33.086Z,9.30
2022-12-18T11:55:22.203Z,7.63
2022-12-18T11:58:04.468Z,7.40
2022-12-18T12:00:44.508Z,8.45
2022-12-18T12:03:28.270Z,6.43
2022-12-18T12:06:16.004Z,8.87
2022-12-18T12:09:00.531Z,9.57
2022-12-18T12:12:16.816Z,7.28
2022-12-18T12:15:37.478Z,5.90
2022-12-18T12:18:15.426Z,7.47
2022-12-18T12:21:10.970Z,5.63
2022-12-18T12:24:13.665Z,7.57
2022-12-18T12:26:53.906Z,8.10
2022-12-18T12:29:42.939Z,5.65
2022-12-18T12:32:48.069Z,5.55
2022-12-18T12:35:22.153Z,6.43
2022-12-18T12:37:58.440Z,5.78
2022-12-18T12:43:29.895Z,6.63
2022-12-18T12:46:02.521Z,6.32
2022-12-18T12:48:39.598Z,4.93
2022-12-18T12:51:33.297Z,6.85
2022-12-18T12:54:03.346Z,5.90
2022-12-18T12:56:57.038Z,6.53
2022-12-18T12:59:31.566Z,6.60
2022-12-18T13:02:24.581Z,7.15
2022-12-18T13:05:06.484Z,7.97
2022-12-18T13:08:22.938Z,5.35
2022-12-18T13:11:14.661Z,7.03
2022-12-18T13:13:56.558Z,7.40
2022-12-18T13:16:33.715Z,6.55
2022-12-18T13:19:01.434Z,6.32
2022-12-18T13:21:35.480Z,7.60
2022-12-18T13:24:27.336Z,5.57
2022-12-18T13:26:56.420Z,5.57
2022-12-18T13:29:44.747Z,7.07
2022-12-18T13:32:27.552Z,8.50
2022-12-18T13:35:25.122Z,8.20
2022-12-18T13:37:55.499Z,5.88
2022-12-18T13:40:42.851Z,11.52
2022-12-18T13:43:23.030Z,7.13
2022-12-18T13:46:25.019Z,6.63
2022-12-18T13:49:00.173Z,6.18
2022-12-18T13:51:36.494Z,9.35
2022-12-18T13:54:36.551Z,6.03
2022-12-18T13:57:26.427Z,5.80
2022-12-18T13:59:54.270Z,7.72
2022-12-18T14:02:29.447Z,6.53
2022-12-18T14:04:57.083Z,7.15
2022-12-18T14:07:26.677Z,5.90
2022-12-18T14:10:41.154Z,5.53
2022-12-18T14:13:00.934Z,4.85
2022-12-18T14:15:41.682Z,7.55
2022-12-18T14:18:23.474Z,5.30
2022-12-18T14:21:00.712Z,4.50
2022-12-18T14:23:33.339Z,5.93
2022-12-18T14:26:06.072Z,7.72
2022-12-18T14:28:33.997Z,5.30
2022-12-18T14:31:01.689Z,4.13
2022-12-18T14:33:29.442Z,4.97
2022-12-18T14:36:00.492Z,4.97
2022-12-18T14:38:39.439Z,4.30
2022-12-18T14:41:15.659Z,4.35
2022-12-18T14:43:45.199Z,7.78
2022-12-18T14:46:37.413Z,5.53
2022-12-18T14:49:34.069Z,6.53
2022-12-18T14:52:07.695Z,4.63
2022-12-18T14:54:38.926Z,6.65
2022-12-18T14:57:20.085Z,5.40
2022-12-18T14:59:47.481Z,8.02
2022-12-18T15:02:28.841Z,6.38
2022-12-18T15:05:12.660Z,5.55
2022-12-18T15:07:55.418Z,6.68
2022-12-18T15:10:31.946Z,5.90
2022-12-18T15:13:03.973Z,4.57
2022-12-18T15:15:39.049Z,5.95
2022-12-18T15:18:16.959Z,6.88
2022-12-18T15:20:56.558Z,6.80
2022-12-18T15:23:26.067Z,10.45
2022-12-18T15:26:07.236Z,6.30
2022-12-18T15:31:14.712Z,6.93
2022-12-18T15:33:54.632Z,5.82
2022-12-18T15:36:26.713Z,7.78
2022-12-18T15:39:04.704Z,7.18
2022-12-18T15:41:38.276Z,6.90
2022-12-18T15:44:24.644Z,5.88
2022-12-18T15:46:54.316Z,5.57
2022-12-18T15:49:23.386Z,8.50
2022-12-18T15:51:54.787Z,5.72
2022-12-18T15:54:41.220Z,6.93
2022-12-18T15:57:25.219Z,5.93
2022-12-18T15:59:54.767Z,26.15
2022-12-18T16:02:24.169Z,7.13
2022-12-18T16:05:02.702Z,7.88
2022-12-18T16:07:30.868Z,9.98
2022-12-18T16:10:00.405Z,8.45
2022-12-18T16:12:30.037Z,8.50
2022-12-18T16:14:57.471Z,7.05
2022-12-18T16:17:25.418Z,9.35
2022-12-18T16:19:52.869Z,7.22
2022-12-18T16:22:28.123Z,7.68
2022-12-18T16:25:01.979Z,7.45
2022-12-18T16:27:32.675Z,8.35
2022-12-18T16:30:00.370Z,9.27
2022-12-18T16:32:28.217Z,12.82
2022-12-18T16:35:02.318Z,8.40
2022-12-18T16:37:29.915Z,8.68
2022-12-18T16:40:01.264Z,8.93
2022-12-18T16:42:29.453Z,9.90
2022-12-18T16:44:57.097Z,7.18
2022-12-18T16:47:24.784Z,7.82
2022-12-18T16:49:53.588Z,7.50
2022-12-18T16:52:23.263Z,10.45
2022-12-18T16:54:50.550Z,7.53
2022-12-18T16:57:20.208Z,8.52
2022-12-18T16:59:51.949Z,7.35
2022-12-18T17:02:25.039Z,8.23
2022-12-18T17:04:57.692Z,8.07
2022-12-18T17:07:26.987Z,8.10
2022-12-18T17:09:54.813Z,8.27
2022-12-18T17:12:23.425Z,9.80
2022-12-18T17:14:50.966Z,13.18
2022-12-18T17:17:21.491Z,8.80
2022-12-18T17:19:51.179Z,7.85
2022-12-18T17:22:18.777Z,8.50
2022-12-18T17:24:47.921Z,9.45
2022-12-18T17:27:16.110Z,8.07
2022-12-18T17:29:48.086Z,7.63
2022-12-18T17:32:17.745Z,11.07
2022-12-18T17:34:46.063Z,14.00
2022-12-18T17:37:13.862Z,8.70
2022-12-18T17:39:41.658Z,11.75
2022-12-18T17:42:14.986Z,8.57
2022-12-18T17:44:43.755Z,11.02
2022-12-18T17:47:13.587Z,12.10
2022-12-18T17:49:41.554Z,9.43
2022-12-18T17:52:09.766Z,12.48
2022-12-18T17:54:40.185Z,9.63
2022-12-18T17:57:07.812Z,9.70
2022-12-18T17:59:35.410Z,8.07
2022-12-18T18:02:03.006Z,10.75
2022-12-18T18:04:32.857Z,15.32
2022-12-18T18:07:01.163Z,9.45
2022-12-18T18:09:28.580Z,12.02
2022-12-18T18:12:15.514Z,6.28
2022-12-18T18:14:43.067Z,8.80
2022-12-18T18:17:11.225Z,20.77
2022-12-18T18:19:38.801Z,14.18
2022-12-18T18:22:07.401Z,12.20
2022-12-18T18:24:35.257Z,14.82
2022-12-18T18:27:03.266Z,10.15
2022-12-18T18:29:30.848Z,8.10
2022-12-18T18:32:23.923Z,11.73
2022-12-18T18:34:51.300Z,11.10
2022-12-18T18:37:19.499Z,10.88
2022-12-18T18:39:46.911Z,8.27
2022-12-18T18:42:14.342Z,7.57
2022-12-18T18:44:45.865Z,9.07
2022-12-18T18:47:16.345Z,7.85
2022-12-18T18:49:43.960Z,9.32
2022-12-18T18:52:11.364Z,10.10
2022-12-18T18:54:51.895Z,10.00
2022-12-18T18:57:30.276Z,11.68
2022-12-18T18:59:58.173Z,8.70
2022-12-18T19:02:25.932Z,8.35
2022-12-18T19:04:53.199Z,8.15
2022-12-18T19:07:29.576Z,11.13
2022-12-18T19:10:04.527Z,13.60
2022-12-18T19:12:51.026Z,11.13
2022-12-18T19:15:18.537Z,8.45
2022-12-18T19:17:47.376Z,8.07
2022-12-18T19:20:15.488Z,10.05
2022-12-18T19:22:43.220Z,8.07
2022-12-18T19:25:12.668Z,10.57
2022-12-18T19:27:40.578Z,11.07
2022-12-18T19:30:08.688Z,7.85
2022-12-18T19:32:36.363Z,21.67
2022-12-18T19:35:04.393Z,11.23
2022-12-18T19:37:32.099Z,9.80
2022-12-18T19:39:59.651Z,8.75
2022-12-18T19:42:35.330Z,10.70
2022-12-18T19:47:32.167Z,15.13
2022-12-18T19:49:59.488Z,17.40
2022-12-18T19:52:27.088Z,12.55
2022-12-18T19:54:54.693Z,8.02
2022-12-18T19:57:21.992Z,12.63
2022-12-18T19:59:49.183Z,15.52
2022-12-18T20:02:16.660Z,8.57
2022-12-18T20:04:44.212Z,9.55
2022-12-18T20:07:12.308Z,8.70
2022-12-18T20:09:39.901Z,10.23
2022-12-18T20:12:08.416Z,8.32
2022-12-18T20:14:35.707Z,7.72
2022-12-18T20:17:04.055Z,11.85
2022-12-18T20:19:35.811Z,9.45
2022-12-18T20:22:04.542Z,11.90
2022-12-18T20:24:32.069Z,9.65
2022-12-18T20:27:00.015Z,11.70
2022-12-18T20:29:27.339Z,12.15
2022-12-18T20:31:55.066Z,9.60
2022-12-18T20:34:22.444Z,10.48
2022-12-18T20:36:50.149Z,10.52
2022-12-18T20:39:19.197Z,9.02
2022-12-18T20:41:47.870Z,8.82
2022-12-18T20:44:22.878Z,11.43
2022-12-18T20:47:01.160Z,10.32
2022-12-18T20:49:32.292Z,14.23
2022-12-18T20:52:00.322Z,10.25
2022-12-18T20:54:28.196Z,11.82
2022-12-18T20:56:56.678Z,10.95
2022-12-18T20:59:26.655Z,10.18
2022-12-18T21:01:55.007Z,9.60
2022-12-18T21:04:24.095Z,9.18
2022-12-18T21:06:59.100Z,9.40
2022-12-18T21:09:37.635Z,15.65
2022-12-18T21:12:30.201Z,12.38
2022-12-18T21:15:03.015Z,11.75
2022-12-18T21:20:27.485Z,9.18
2022-12-18T21:22:56.407Z,9.75
2022-12-18T21:25:32.843Z,14.10
2022-12-18T21:28:00.953Z,8.77
2022-12-18T21:30:28.850Z,8.75
2022-12-18T21:32:56.658Z,9.07
2022-12-18T21:35:24.547Z,10.35
2022-12-18T21:37:54.435Z,9.20
2022-12-18T21:40:21.820Z,10.93
2022-12-18T21:43:07.741Z,10.63
2022-12-18T21:45:34.948Z,8.68
2022-12-18T21:48:02.601Z,6.93
2022-12-18T21:50:33.617Z,8.43
2022-12-18T21:53:04.841Z,9.82
2022-12-18T21:55:35.846Z,10.20
2022-12-18T21:58:03.872Z,13.65
2022-12-18T22:00:31.294Z,9.90
2022-12-18T22:03:12.675Z,12.93
2022-12-18T22:05:47.529Z,9.65
2022-12-18T22:08:28.273Z,9.23
2022-12-18T22:10:56.240Z,9.52
2022-12-18T22:13:24.938Z,12.02
2022-12-18T22:15:53.302Z,11.82
2022-12-18T22:18:21.929Z,9.18
2022-12-18T22:20:50.049Z,10.02
2022-12-18T22:23:17.809Z,11.00
2022-12-18T22:25:45.481Z,8.18
2022-12-18T22:28:31.673Z,14.18
2022-12-18T22:31:02.695Z,10.35
2022-12-18T22:33:30.581Z,15.35
2022-12-18T22:35:58.582Z,11.18
2022-12-18T22:38:26.846Z,8.32
2022-12-18T22:40:55.795Z,10.13
2022-12-18T22:43:30.140Z,10.60
2022-12-18T22:46:02.323Z,11.27
2022-12-18T22:48:30.851Z,9.73
2022-12-18T22:50:59.528Z,11.25
2022-12-18T22:53:28.002Z,9.65
2022-12-18T22:56:03.698Z,13.02
2022-12-18T22:58:31.279Z,8.43
2022-12-18T23:00:58.754Z,6.93
2022-12-18T23:03:26.908Z,7.53
2022-12-18T23:05:54.564Z,13.23
2022-12-18T23:08:23.133Z,10.43
2022-12-18T23:10:53.446Z,11.68
2022-12-18T23:13:21.176Z,13.43
2022-12-18T23:15:48.914Z,13.38
2022-12-18T23:18:16.252Z,9.70
2022-12-18T23:20:43.705Z,11.98
2022-12-18T23:23:11.935Z,10.55
2022-12-18T23:25:41.249Z,8.60
2022-12-18T23:28:08.618Z,9.93
2022-12-18T23:30:36.106Z,14.75
2022-12-18T23:33:03.950Z,11.63
2022-12-18T23:35:31.706Z,14.45
2022-12-18T23:37:59.973Z,12.43
2022-12-18T23:40:28.353Z,12.70
2022-12-18T23:42:56.143Z,10.93
2022-12-18T23:45:23.516Z,12.32
2022-12-18T23:47:51.356Z,10.85
2022-12-18T23:50:18.810Z,10.73
2022-12-18T23:52:48.325Z,12.05
2022-12-18T23:55:15.679Z,9.95
2022-12-18T23:57:43.246Z,18.77
